Etusivu
METAR-TAF:

METAR-TAF

Lentoasemat :

Alexandria, Louisiana, Yhdysvallat

Leveyspiiri: 31-23-42N, Pituuspiiri: 092-17-25W, korkeus merenpinnasta: 34 m

Tämänhetkinen sää

Tämä raportti tehtiin 16 minuuttia sitten, kello 08.53 UTC
tyyntä
Lämpötila 15°C
Kosteus 94%
Ilmanpaine 1013 hPa
Näkyvyys: 4.0 km
Hajanaisia pilviä 500 ft:n korkeudessa
Pilvistä 3600 ft:n korkeudessa
kovaa sadetta, utua

METAR: KESF 220853Z AUTO 00000KT 2 1/2SM +RA BR SCT005 OVC036 15/14 A2992 RMK AO2 SLP130 P0033 60108 T01500144 51005

Aika: 03:09 (09:09 UTC)


TAF: puuttuu

Säähavainnot ja -ennusteet yli 4000 lentoasemalta (METAR- ja TAF-raportit).

Käytössä olevat sääasemat on merkitty karttaan keltaisilla ja punaisilla pisteillä.

Aseta hiiri pisteen päälle nähdäksesi sääaseman nimen.

Klikkaa sitten nähdäksesi säähavainnot ja -ennusteet.

Kartan vaihtaminen: klikkaa mustalla rastilla varustettuja vihreitä pisteitä, niin voit zoomata sisään; viivalla varustettua vihreää pistettä, niin voit zoomata ulos tai vihreitä nuolia, niin pääset viereisille kartoille.


METAR-TAF: